sensor_id;sensor_type;location;lat;lon;timestamp;temperature;humidity
25640;DHT22;13497;48.322;16.204;2023-03-23T00:00:00;9.80;99.90
25640;DHT22;13497;48.322;16.204;2023-03-23T00:02:27;9.70;99.90
25640;DHT22;13497;48.322;16.204;2023-03-23T00:04:53;9.80;99.90
25640;DHT22;13497;48.322;16.204;2023-03-23T00:07:21;9.80;99.90
25640;DHT22;13497;48.322;16.204;2023-03-23T00:09:48;9.80;99.90
25640;DHT22;13497;48.322;16.204;2023-03-23T00:12:20;9.80;99.90
25640;DHT22;13497;48.322;16.204;2023-03-23T00:14:47;9.80;99.90
25640;DHT22;13497;48.322;16.204;2023-03-23T00:17:13;9.80;99.90
25640;DHT22;13497;48.322;16.204;2023-03-23T00:19:39;9.90;99.90
25640;DHT22;13497;48.322;16.204;2023-03-23T00:22:15;9.80;99.90
25640;DHT22;13497;48.322;16.204;2023-03-23T00:24:42;9.70;99.90
25640;DHT22;13497;48.322;16.204;2023-03-23T00:27:09;9.70;99.90
25640;DHT22;13497;48.322;16.204;2023-03-23T00:29:38;9.50;99.90
25640;DHT22;13497;48.322;16.204;2023-03-23T00:32:04;9.50;99.90
25640;DHT22;13497;48.322;16.204;2023-03-23T00:34:30;9.60;99.90
25640;DHT22;13497;48.322;16.204;2023-03-23T00:36:58;9.60;99.90
25640;DHT22;13497;48.322;16.204;2023-03-23T00:39:25;9.60;99.90
25640;DHT22;13497;48.322;16.204;2023-03-23T00:41:52;9.50;99.90
25640;DHT22;13497;48.322;16.204;2023-03-23T00:44:19;9.40;99.90
25640;DHT22;13497;48.322;16.204;2023-03-23T00:46:49;9.30;99.90
25640;DHT22;13497;48.322;16.204;2023-03-23T00:49:17;9.20;99.90
25640;DHT22;13497;48.322;16.204;2023-03-23T00:51:43;9.10;99.90
25640;DHT22;13497;48.322;16.204;2023-03-23T00:54:09;9.10;99.90
25640;DHT22;13497;48.322;16.204;2023-03-23T00:56:36;9.00;99.90
25640;DHT22;13497;48.322;16.204;2023-03-23T00:59:02;9.00;99.90
25640;DHT22;13497;48.322;16.204;2023-03-23T01:01:29;9.00;99.90
25640;DHT22;13497;48.322;16.204;2023-03-23T01:03:55;8.90;99.90
25640;DHT22;13497;48.322;16.204;2023-03-23T01:06:27;9.00;99.90
25640;DHT22;13497;48.322;16.204;2023-03-23T01:08:53;9.10;99.90
25640;DHT22;13497;48.322;16.204;2023-03-23T01:11:20;9.10;99.90
25640;DHT22;13497;48.322;16.204;2023-03-23T01:13:46;9.10;99.90
25640;DHT22;13497;48.322;16.204;2023-03-23T01:16:12;9.10;99.90
25640;DHT22;13497;48.322;16.204;2023-03-23T01:18:39;9.10;99.90
25640;DHT22;13497;48.322;16.204;2023-03-23T01:21:10;9.00;99.90
25640;DHT22;13497;48.322;16.204;2023-03-23T01:23:37;9.00;99.90
25640;DHT22;13497;48.322;16.204;2023-03-23T01:26:05;9.00;99.90
25640;DHT22;13497;48.322;16.204;2023-03-23T01:28:33;9.00;99.90
25640;DHT22;13497;48.322;16.204;2023-03-23T01:31:06;9.00;99.90
25640;DHT22;13497;48.322;16.204;2023-03-23T01:33:33;9.00;99.90
25640;DHT22;13497;48.322;16.204;2023-03-23T01:36:08;9.00;99.90
25640;DHT22;13497;48.322;16.204;2023-03-23T01:38:35;9.10;99.90
25640;DHT22;13497;48.322;16.204;2023-03-23T01:41:02;9.10;99.90
25640;DHT22;13497;48.322;16.204;2023-03-23T01:43:28;9.00;99.90
25640;DHT22;13497;48.322;16.204;2023-03-23T01:45:53;8.90;99.90
25640;DHT22;13497;48.322;16.204;2023-03-23T01:48:35;8.80;99.90
25640;DHT22;13497;48.322;16.204;2023-03-23T01:51:09;8.90;99.90
25640;DHT22;13497;48.322;16.204;2023-03-23T01:53:40;8.80;99.90
25640;DHT22;13497;48.322;16.204;2023-03-23T01:56:09;8.80;99.90
25640;DHT22;13497;48.322;16.204;2023-03-23T01:58:39;8.70;99.90
25640;DHT22;13497;48.322;16.204;2023-03-23T02:01:10;8.60;99.90
25640;DHT22;13497;48.322;16.204;2023-03-23T02:03:39;8.40;99.90
25640;DHT22;13497;48.322;16.204;2023-03-23T02:06:07;8.40;99.90
25640;DHT22;13497;48.322;16.204;2023-03-23T02:08:33;8.40;99.90
25640;DHT22;13497;48.322;16.204;2023-03-23T02:10:59;8.40;99.90
25640;DHT22;13497;48.322;16.204;2023-03-23T02:13:27;8.20;99.90
25640;DHT22;13497;48.322;16.204;2023-03-23T02:24:26;8.10;99.90
25640;DHT22;13497;48.322;16.204;2023-03-23T02:35:39;8.00;99.90
25640;DHT22;13497;48.322;16.204;2023-03-23T02:38:20;8.10;99.90
25640;DHT22;13497;48.322;16.204;2023-03-23T02:40:49;8.10;99.90
25640;DHT22;13497;48.322;16.204;2023-03-23T02:43:22;8.00;99.90
25640;DHT22;13497;48.322;16.204;2023-03-23T02:45:49;8.10;99.90
25640;DHT22;13497;48.322;16.204;2023-03-23T02:48:18;8.10;99.90
25640;DHT22;13497;48.322;16.204;2023-03-23T02:50:49;8.10;99.90
25640;DHT22;13497;48.322;16.204;2023-03-23T02:53:20;8.20;99.90
25640;DHT22;13497;48.322;16.204;2023-03-23T02:55:47;8.20;99.90
25640;DHT22;13497;48.322;16.204;2023-03-23T02:58:14;8.20;99.90
25640;DHT22;13497;48.322;16.204;2023-03-23T03:00:40;8.20;99.90
25640;DHT22;13497;48.322;16.204;2023-03-23T03:03:12;8.10;99.90
25640;DHT22;13497;48.322;16.204;2023-03-23T03:08:30;8.10;99.90
25640;DHT22;13497;48.322;16.204;2023-03-23T03:11:28;8.10;99.90
25640;DHT22;13497;48.322;16.204;2023-03-23T03:14:04;8.00;99.90
25640;DHT22;13497;48.322;16.204;2023-03-23T03:19:11;7.90;99.90
25640;DHT22;13497;48.322;16.204;2023-03-23T03:21:41;8.00;99.90
25640;DHT22;13497;48.322;16.204;2023-03-23T03:24:10;8.00;99.90
25640;DHT22;13497;48.322;16.204;2023-03-23T03:26:45;8.00;99.90
25640;DHT22;13497;48.322;16.204;2023-03-23T03:29:14;8.10;99.90
25640;DHT22;13497;48.322;16.204;2023-03-23T03:31:44;8.10;99.90
25640;DHT22;13497;48.322;16.204;2023-03-23T03:34:12;8.10;99.90
25640;DHT22;13497;48.322;16.204;2023-03-23T03:36:40;8.10;99.90
25640;DHT22;13497;48.322;16.204;2023-03-23T03:39:08;8.00;99.90
25640;DHT22;13497;48.322;16.204;2023-03-23T03:41:35;7.90;99.90
25640;DHT22;13497;48.322;16.204;2023-03-23T03:44:02;7.90;99.90
25640;DHT22;13497;48.322;16.204;2023-03-23T03:46:27;7.90;99.90
25640;DHT22;13497;48.322;16.204;2023-03-23T03:48:55;7.90;99.90
25640;DHT22;13497;48.322;16.204;2023-03-23T03:51:25;8.00;99.90
25640;DHT22;13497;48.322;16.204;2023-03-23T03:53:51;8.00;99.90
25640;DHT22;13497;48.322;16.204;2023-03-23T03:56:17;8.00;99.90
25640;DHT22;13497;48.322;16.204;2023-03-23T03:58:43;7.90;99.90
25640;DHT22;13497;48.322;16.204;2023-03-23T04:01:09;7.90;99.90
25640;DHT22;13497;48.322;16.204;2023-03-23T04:03:39;7.90;99.90
25640;DHT22;13497;48.322;16.204;2023-03-23T04:06:05;8.00;99.90
25640;DHT22;13497;48.322;16.204;2023-03-23T04:08:31;8.10;99.90
25640;DHT22;13497;48.322;16.204;2023-03-23T04:10:58;8.10;99.90
25640;DHT22;13497;48.322;16.204;2023-03-23T04:13:23;8.10;99.90
25640;DHT22;13497;48.322;16.204;2023-03-23T04:15:49;8.00;99.90
25640;DHT22;13497;48.322;16.204;2023-03-23T04:18:15;8.00;99.90
25640;DHT22;13497;48.322;16.204;2023-03-23T04:20:44;8.00;99.90
25640;DHT22;13497;48.322;16.204;2023-03-23T04:23:15;8.00;99.90
25640;DHT22;13497;48.322;16.204;2023-03-23T04:25:49;7.80;99.90
25640;DHT22;13497;48.322;16.204;2023-03-23T04:28:16;7.60;99.90
25640;DHT22;13497;48.322;16.204;2023-03-23T04:30:45;7.40;99.90
25640;DHT22;13497;48.322;16.204;2023-03-23T04:33:12;7.30;99.90
25640;DHT22;13497;48.322;16.204;2023-03-23T04:35:42;7.10;99.90
25640;DHT22;13497;48.322;16.204;2023-03-23T04:38:08;7.00;99.90
25640;DHT22;13497;48.322;16.204;2023-03-23T04:40:38;7.00;99.90
25640;DHT22;13497;48.322;16.204;2023-03-23T04:43:05;7.00;99.90
25640;DHT22;13497;48.322;16.204;2023-03-23T04:45:31;7.00;99.90
25640;DHT22;13497;48.322;16.204;2023-03-23T04:47:58;7.00;99.90
25640;DHT22;13497;48.322;16.204;2023-03-23T04:50:27;7.20;99.90
25640;DHT22;13497;48.322;16.204;2023-03-23T04:52:56;7.40;99.90
25640;DHT22;13497;48.322;16.204;2023-03-23T04:55:25;7.50;99.90
25640;DHT22;13497;48.322;16.204;2023-03-23T04:57:51;7.50;99.90
25640;DHT22;13497;48.322;16.204;2023-03-23T05:00:17;7.50;99.90
25640;DHT22;13497;48.322;16.204;2023-03-23T05:02:45;7.60;99.90
25640;DHT22;13497;48.322;16.204;2023-03-23T05:05:13;7.70;99.90
25640;DHT22;13497;48.322;16.204;2023-03-23T05:07:41;7.50;99.90
25640;DHT22;13497;48.322;16.204;2023-03-23T05:10:11;7.50;99.90
25640;DHT22;13497;48.322;16.204;2023-03-23T05:12:37;7.40;99.90
25640;DHT22;13497;48.322;16.204;2023-03-23T05:15:04;7.50;99.90
25640;DHT22;13497;48.322;16.204;2023-03-23T05:17:30;7.50;99.90
25640;DHT22;13497;48.322;16.204;2023-03-23T05:19:58;7.60;99.90
25640;DHT22;13497;48.322;16.204;2023-03-23T05:22:26;7.60;99.90
25640;DHT22;13497;48.322;16.204;2023-03-23T05:24:52;7.70;99.90
25640;DHT22;13497;48.322;16.204;2023-03-23T05:27:18;7.80;99.90
25640;DHT22;13497;48.322;16.204;2023-03-23T05:29:45;7.80;99.90
25640;DHT22;13497;48.322;16.204;2023-03-23T05:32:15;8.00;99.90
25640;DHT22;13497;48.322;16.204;2023-03-23T05:34:41;8.20;99.90
25640;DHT22;13497;48.322;16.204;2023-03-23T05:37:09;8.40;99.90
25640;DHT22;13497;48.322;16.204;2023-03-23T05:39:35;8.70;99.90
25640;DHT22;13497;48.322;16.204;2023-03-23T05:42:01;8.80;99.90
25640;DHT22;13497;48.322;16.204;2023-03-23T05:44:27;9.00;99.90
25640;DHT22;13497;48.322;16.204;2023-03-23T05:46:52;9.20;99.90
25640;DHT22;13497;48.322;16.204;2023-03-23T05:49:18;9.40;99.90
25640;DHT22;13497;48.322;16.204;2023-03-23T05:51:45;9.60;99.90
25640;DHT22;13497;48.322;16.204;2023-03-23T05:54:15;9.60;99.90
25640;DHT22;13497;48.322;16.204;2023-03-23T05:56:41;9.80;99.90
25640;DHT22;13497;48.322;16.204;2023-03-23T05:59:08;9.70;99.90
25640;DHT22;13497;48.322;16.204;2023-03-23T06:01:34;9.70;99.90
25640;DHT22;13497;48.322;16.204;2023-03-23T06:04:00;9.80;99.90
25640;DHT22;13497;48.322;16.204;2023-03-23T06:06:27;9.80;99.90
25640;DHT22;13497;48.322;16.204;2023-03-23T06:08:55;9.70;99.90
25640;DHT22;13497;48.322;16.204;2023-03-23T06:11:21;9.50;99.90
25640;DHT22;13497;48.322;16.204;2023-03-23T06:13:46;9.40;99.90
25640;DHT22;13497;48.322;16.204;2023-03-23T06:16:13;9.40;99.90
25640;DHT22;13497;48.322;16.204;2023-03-23T06:18:39;9.60;99.90
25640;DHT22;13497;48.322;16.204;2023-03-23T06:21:06;9.70;99.90
25640;DHT22;13497;48.322;16.204;2023-03-23T06:23:33;9.90;99.90
25640;DHT22;13497;48.322;16.204;2023-03-23T06:26:02;10.10;99.90
25640;DHT22;13497;48.322;16.204;2023-03-23T06:28:29;10.40;99.90
25640;DHT22;13497;48.322;16.204;2023-03-23T06:30:59;10.60;99.90
25640;DHT22;13497;48.322;16.204;2023-03-23T06:33:25;10.70;99.90
25640;DHT22;13497;48.322;16.204;2023-03-23T06:35:51;10.80;99.90
25640;DHT22;13497;48.322;16.204;2023-03-23T06:38:17;10.80;99.90
25640;DHT22;13497;48.322;16.204;2023-03-23T06:40:42;10.90;99.90
25640;DHT22;13497;48.322;16.204;2023-03-23T06:43:12;10.90;99.90
25640;DHT22;13497;48.322;16.204;2023-03-23T06:45:39;10.90;99.90
25640;DHT22;13497;48.322;16.204;2023-03-23T06:48:05;11.00;99.90
25640;DHT22;13497;48.322;16.204;2023-03-23T06:50:31;11.10;99.90
25640;DHT22;13497;48.322;16.204;2023-03-23T06:52:56;11.20;99.90
25640;DHT22;13497;48.322;16.204;2023-03-23T06:55:22;11.10;99.90
25640;DHT22;13497;48.322;16.204;2023-03-23T06:57:48;11.10;99.90
25640;DHT22;13497;48.322;16.204;2023-03-23T07:00:14;11.00;99.90
25640;DHT22;13497;48.322;16.204;2023-03-23T07:02:40;11.00;99.90
25640;DHT22;13497;48.322;16.204;2023-03-23T07:05:07;11.00;99.90
25640;DHT22;13497;48.322;16.204;2023-03-23T07:07:35;11.10;99.90
25640;DHT22;13497;48.322;16.204;2023-03-23T07:10:02;11.00;99.90
25640;DHT22;13497;48.322;16.204;2023-03-23T07:12:27;11.10;99.90
25640;DHT22;13497;48.322;16.204;2023-03-23T07:14:54;11.10;99.90
25640;DHT22;13497;48.322;16.204;2023-03-23T07:17:20;11.20;99.90
25640;DHT22;13497;48.322;16.204;2023-03-23T07:19:46;11.20;99.90
25640;DHT22;13497;48.322;16.204;2023-03-23T07:22:12;11.10;99.90
25640;DHT22;13497;48.322;16.204;2023-03-23T07:24:37;11.10;99.90
25640;DHT22;13497;48.322;16.204;2023-03-23T07:27:03;11.20;99.90
25640;DHT22;13497;48.322;16.204;2023-03-23T07:29:29;11.20;99.90
25640;DHT22;13497;48.322;16.204;2023-03-23T07:31:55;11.40;99.90
25640;DHT22;13497;48.322;16.204;2023-03-23T07:34:20;11.70;99.90
25640;DHT22;13497;48.322;16.204;2023-03-23T07:36:46;11.80;99.90
25640;DHT22;13497;48.322;16.204;2023-03-23T07:39:13;12.00;99.90
25640;DHT22;13497;48.322;16.204;2023-03-23T07:41:38;12.20;99.90
25640;DHT22;13497;48.322;16.204;2023-03-23T07:44:04;12.20;99.90
25640;DHT22;13497;48.322;16.204;2023-03-23T07:46:32;12.30;99.90
25640;DHT22;13497;48.322;16.204;2023-03-23T07:48:58;12.50;99.90
25640;DHT22;13497;48.322;16.204;2023-03-23T07:51:24;12.50;99.90
25640;DHT22;13497;48.322;16.204;2023-03-23T07:53:50;12.50;99.90
25640;DHT22;13497;48.322;16.204;2023-03-23T07:56:16;12.40;99.90
25640;DHT22;13497;48.322;16.204;2023-03-23T07:58:47;12.30;99.90
25640;DHT22;13497;48.322;16.204;2023-03-23T08:01:14;12.10;99.90
25640;DHT22;13497;48.322;16.204;2023-03-23T08:03:39;11.90;99.90
25640;DHT22;13497;48.322;16.204;2023-03-23T08:06:05;11.80;99.90
25640;DHT22;13497;48.322;16.204;2023-03-23T08:08:31;11.60;99.90
25640;DHT22;13497;48.322;16.204;2023-03-23T08:10:58;11.50;99.90
25640;DHT22;13497;48.322;16.204;2023-03-23T08:13:24;11.50;99.90
25640;DHT22;13497;48.322;16.204;2023-03-23T08:15:50;11.50;99.90
25640;DHT22;13497;48.322;16.204;2023-03-23T08:18:17;11.50;99.90
25640;DHT22;13497;48.322;16.204;2023-03-23T08:20:43;11.50;99.90
25640;DHT22;13497;48.322;16.204;2023-03-23T08:23:10;11.50;99.90
25640;DHT22;13497;48.322;16.204;2023-03-23T08:25:36;11.50;99.90
25640;DHT22;13497;48.322;16.204;2023-03-23T08:28:03;11.70;99.90
25640;DHT22;13497;48.322;16.204;2023-03-23T08:30:29;11.80;99.90
25640;DHT22;13497;48.322;16.204;2023-03-23T08:32:56;11.80;99.90
25640;DHT22;13497;48.322;16.204;2023-03-23T08:35:23;11.80;99.90
25640;DHT22;13497;48.322;16.204;2023-03-23T08:37:49;11.90;99.90
25640;DHT22;13497;48.322;16.204;2023-03-23T08:40:18;12.00;99.90
25640;DHT22;13497;48.322;16.204;2023-03-23T08:42:46;12.20;99.90
25640;DHT22;13497;48.322;16.204;2023-03-23T08:45:14;12.30;99.90
25640;DHT22;13497;48.322;16.204;2023-03-23T08:47:41;12.50;99.90
25640;DHT22;13497;48.322;16.204;2023-03-23T08:50:10;12.60;99.90
25640;DHT22;13497;48.322;16.204;2023-03-23T08:52:36;12.80;99.90
25640;DHT22;13497;48.322;16.204;2023-03-23T08:55:03;12.80;99.90
25640;DHT22;13497;48.322;16.204;2023-03-23T08:57:29;12.90;99.90
25640;DHT22;13497;48.322;16.204;2023-03-23T08:59:54;13.10;99.90
25640;DHT22;13497;48.322;16.204;2023-03-23T09:02:25;13.20;99.90
25640;DHT22;13497;48.322;16.204;2023-03-23T09:04:51;13.30;99.90
25640;DHT22;13497;48.322;16.204;2023-03-23T09:07:18;13.30;99.90
25640;DHT22;13497;48.322;16.204;2023-03-23T09:09:43;13.50;99.90
25640;DHT22;13497;48.322;16.204;2023-03-23T09:12:10;13.70;99.90
25640;DHT22;13497;48.322;16.204;2023-03-23T09:14:37;13.80;99.90
25640;DHT22;13497;48.322;16.204;2023-03-23T09:17:04;14.00;99.90
25640;DHT22;13497;48.322;16.204;2023-03-23T09:19:30;14.30;99.90
25640;DHT22;13497;48.322;16.204;2023-03-23T09:21:56;14.40;99.80
25640;DHT22;13497;48.322;16.204;2023-03-23T09:24:22;14.40;99.30
25640;DHT22;13497;48.322;16.204;2023-03-23T09:26:48;14.50;99.20
25640;DHT22;13497;48.322;16.204;2023-03-23T09:29:13;14.70;98.70
25640;DHT22;13497;48.322;16.204;2023-03-23T09:31:39;14.80;98.10
25640;DHT22;13497;48.322;16.204;2023-03-23T09:34:08;14.90;98.00
25640;DHT22;13497;48.322;16.204;2023-03-23T09:36:37;15.00;96.90
25640;DHT22;13497;48.322;16.204;2023-03-23T09:39:06;15.10;95.90
25640;DHT22;13497;48.322;16.204;2023-03-23T09:42:02;15.30;95.70
25640;DHT22;13497;48.322;16.204;2023-03-23T09:50:15;15.70;95.60
25640;DHT22;13497;48.322;16.204;2023-03-23T09:52:56;15.90;95.40
25640;DHT22;13497;48.322;16.204;2023-03-23T09:55:24;16.10;94.60
25640;DHT22;13497;48.322;16.204;2023-03-23T09:58:16;16.20;94.40
25640;DHT22;13497;48.322;16.204;2023-03-23T10:00:51;16.30;93.50
25640;DHT22;13497;48.322;16.204;2023-03-23T10:03:22;16.50;93.30
25640;DHT22;13497;48.322;16.204;2023-03-23T10:05:52;16.60;93.00
25640;DHT22;13497;48.322;16.204;2023-03-23T10:08:22;16.60;92.60
25640;DHT22;13497;48.322;16.204;2023-03-23T10:16:03;17.10;92.60
25640;DHT22;13497;48.322;16.204;2023-03-23T10:18:37;17.10;91.90
25640;DHT22;13497;48.322;16.204;2023-03-23T10:21:03;17.30;92.10
25640;DHT22;13497;48.322;16.204;2023-03-23T10:23:41;17.50;91.70
25640;DHT22;13497;48.322;16.204;2023-03-23T10:26:27;17.60;91.50
25640;DHT22;13497;48.322;16.204;2023-03-23T10:29:07;17.90;91.10
25640;DHT22;13497;48.322;16.204;2023-03-23T10:31:43;18.10;90.60
25640;DHT22;13497;48.322;16.204;2023-03-23T10:34:24;18.20;90.50
25640;DHT22;13497;48.322;16.204;2023-03-23T10:37:05;18.40;90.20
25640;DHT22;13497;48.322;16.204;2023-03-23T10:39:44;18.50;90.00
25640;DHT22;13497;48.322;16.204;2023-03-23T10:42:11;18.50;90.80
25640;DHT22;13497;48.322;16.204;2023-03-23T10:44:36;18.60;91.00
25640;DHT22;13497;48.322;16.204;2023-03-23T10:47:06;18.50;91.00
25640;DHT22;13497;48.322;16.204;2023-03-23T10:49:40;18.40;90.90
25640;DHT22;13497;48.322;16.204;2023-03-23T10:52:34;18.50;91.00
25640;DHT22;13497;48.322;16.204;2023-03-23T10:55:17;18.60;90.80
25640;DHT22;13497;48.322;16.204;2023-03-23T10:57:59;18.60;90.70
25640;DHT22;13497;48.322;16.204;2023-03-23T11:00:27;18.50;90.90
25640;DHT22;13497;48.322;16.204;2023-03-23T11:05:43;18.90;90.40
25640;DHT22;13497;48.322;16.204;2023-03-23T11:08:34;19.00;90.50
25640;DHT22;13497;48.322;16.204;2023-03-23T11:11:19;19.20;90.30
25640;DHT22;13497;48.322;16.204;2023-03-23T11:13:48;19.50;90.10
25640;DHT22;13497;48.322;16.204;2023-03-23T11:16:28;19.90;89.30
25640;DHT22;13497;48.322;16.204;2023-03-23T11:18:54;20.10;88.80
25640;DHT22;13497;48.322;16.204;2023-03-23T11:21:22;20.20;88.60
25640;DHT22;13497;48.322;16.204;2023-03-23T11:23:57;20.00;89.00
25640;DHT22;13497;48.322;16.204;2023-03-23T11:26:34;20.10;89.40
25640;DHT22;13497;48.322;16.204;2023-03-23T11:31:35;20.30;88.60
25640;DHT22;13497;48.322;16.204;2023-03-23T11:34:09;20.50;88.10
25640;DHT22;13497;48.322;16.204;2023-03-23T11:36:38;20.80;87.70
25640;DHT22;13497;48.322;16.204;2023-03-23T11:39:31;21.10;87.00
25640;DHT22;13497;48.322;16.204;2023-03-23T11:41:59;21.40;86.10
25640;DHT22;13497;48.322;16.204;2023-03-23T11:44:34;21.10;85.40
25640;DHT22;13497;48.322;16.204;2023-03-23T11:47:16;21.10;85.60
25640;DHT22;13497;48.322;16.204;2023-03-23T11:52:47;21.20;83.20
25640;DHT22;13497;48.322;16.204;2023-03-23T11:55:17;21.10;83.60
25640;DHT22;13497;48.322;16.204;2023-03-23T11:57:44;21.10;83.50
25640;DHT22;13497;48.322;16.204;2023-03-23T12:00:16;21.00;83.30
25640;DHT22;13497;48.322;16.204;2023-03-23T12:06:29;20.70;83.70
25640;DHT22;13497;48.322;16.204;2023-03-23T12:11:40;20.80;82.70
25640;DHT22;13497;48.322;16.204;2023-03-23T12:14:24;21.10;82.50
25640;DHT22;13497;48.322;16.204;2023-03-23T12:17:23;21.50;81.60
25640;DHT22;13497;48.322;16.204;2023-03-23T12:28:22;22.20;79.30
25640;DHT22;13497;48.322;16.204;2023-03-23T12:42:02;21.40;80.10
25640;DHT22;13497;48.322;16.204;2023-03-23T12:44:42;21.70;79.90
25640;DHT22;13497;48.322;16.204;2023-03-23T12:47:17;21.60;78.70
25640;DHT22;13497;48.322;16.204;2023-03-23T12:50:01;21.50;79.30
25640;DHT22;13497;48.322;16.204;2023-03-23T12:52:44;21.30;80.00
25640;DHT22;13497;48.322;16.204;2023-03-23T12:57:59;21.50;78.90
25640;DHT22;13497;48.322;16.204;2023-03-23T13:00:28;21.60;78.20
25640;DHT22;13497;48.322;16.204;2023-03-23T13:03:19;21.60;78.30
25640;DHT22;13497;48.322;16.204;2023-03-23T13:05:50;21.70;77.10
25640;DHT22;13497;48.322;16.204;2023-03-23T13:08:32;21.60;77.90
25640;DHT22;13497;48.322;16.204;2023-03-23T13:11:03;21.50;77.10
25640;DHT22;13497;48.322;16.204;2023-03-23T13:13:52;21.30;78.40
25640;DHT22;13497;48.322;16.204;2023-03-23T13:21:55;21.10;77.80
25640;DHT22;13497;48.322;16.204;2023-03-23T13:24:26;21.10;77.10
25640;DHT22;13497;48.322;16.204;2023-03-23T13:26:58;21.20;77.30
25640;DHT22;13497;48.322;16.204;2023-03-23T13:29:26;21.40;77.30
25640;DHT22;13497;48.322;16.204;2023-03-23T13:32:11;21.50;76.50
25640;DHT22;13497;48.322;16.204;2023-03-23T13:34:39;21.40;76.50
25640;DHT22;13497;48.322;16.204;2023-03-23T13:37:20;21.00;76.80
25640;DHT22;13497;48.322;16.204;2023-03-23T13:39:56;21.10;76.90
25640;DHT22;13497;48.322;16.204;2023-03-23T13:42:29;21.10;76.70
25640;DHT22;13497;48.322;16.204;2023-03-23T13:45:20;20.90;77.10
25640;DHT22;13497;48.322;16.204;2023-03-23T13:47:47;20.80;76.90
25640;DHT22;13497;48.322;16.204;2023-03-23T13:50:27;20.60;76.90
25640;DHT22;13497;48.322;16.204;2023-03-23T13:53:01;20.80;77.10
25640;DHT22;13497;48.322;16.204;2023-03-23T13:55:42;21.20;75.60
25640;DHT22;13497;48.322;16.204;2023-03-23T13:58:22;21.50;75.00
25640;DHT22;13497;48.322;16.204;2023-03-23T14:01:00;21.50;74.20
25640;DHT22;13497;48.322;16.204;2023-03-23T14:03:36;21.60;74.50
25640;DHT22;13497;48.322;16.204;2023-03-23T14:06:12;21.50;74.80
25640;DHT22;13497;48.322;16.204;2023-03-23T14:08:44;21.60;74.90
25640;DHT22;13497;48.322;16.204;2023-03-23T14:14:05;21.80;74.40
25640;DHT22;13497;48.322;16.204;2023-03-23T14:16:42;21.90;73.90
25640;DHT22;13497;48.322;16.204;2023-03-23T14:19:28;22.10;74.20
25640;DHT22;13497;48.322;16.204;2023-03-23T14:21:59;22.10;73.30
25640;DHT22;13497;48.322;16.204;2023-03-23T14:24:29;22.10;73.30
25640;DHT22;13497;48.322;16.204;2023-03-23T14:27:14;22.00;73.10
25640;DHT22;13497;48.322;16.204;2023-03-23T14:29:41;21.90;73.50
25640;DHT22;13497;48.322;16.204;2023-03-23T14:32:14;21.80;73.60
25640;DHT22;13497;48.322;16.204;2023-03-23T14:34:41;21.80;74.00
25640;DHT22;13497;48.322;16.204;2023-03-23T14:37:12;21.70;74.10
25640;DHT22;13497;48.322;16.204;2023-03-23T14:39:38;21.70;74.20
25640;DHT22;13497;48.322;16.204;2023-03-23T14:42:06;21.80;74.70
25640;DHT22;13497;48.322;16.204;2023-03-23T14:44:40;21.80;74.10
25640;DHT22;13497;48.322;16.204;2023-03-23T14:47:16;21.90;74.20
25640;DHT22;13497;48.322;16.204;2023-03-23T14:49:44;22.10;74.10
25640;DHT22;13497;48.322;16.204;2023-03-23T14:52:14;22.20;73.80
25640;DHT22;13497;48.322;16.204;2023-03-23T14:54:41;22.20;72.80
25640;DHT22;13497;48.322;16.204;2023-03-23T14:57:16;22.20;73.60
25640;DHT22;13497;48.322;16.204;2023-03-23T14:59:47;22.20;74.00
25640;DHT22;13497;48.322;16.204;2023-03-23T15:02:28;22.10;72.80
25640;DHT22;13497;48.322;16.204;2023-03-23T15:04:59;21.90;73.10
25640;DHT22;13497;48.322;16.204;2023-03-23T15:07:30;21.90;73.20
25640;DHT22;13497;48.322;16.204;2023-03-23T15:09:57;21.80;73.40
25640;DHT22;13497;48.322;16.204;2023-03-23T15:12:25;21.90;73.20
25640;DHT22;13497;48.322;16.204;2023-03-23T15:14:54;21.90;73.10
25640;DHT22;13497;48.322;16.204;2023-03-23T15:17:30;21.90;73.00
25640;DHT22;13497;48.322;16.204;2023-03-23T15:19:57;21.70;73.00
25640;DHT22;13497;48.322;16.204;2023-03-23T15:22:25;21.70;72.80
25640;DHT22;13497;48.322;16.204;2023-03-23T15:25:00;21.60;73.00
25640;DHT22;13497;48.322;16.204;2023-03-23T15:27:33;21.60;73.10
25640;DHT22;13497;48.322;16.204;2023-03-23T15:32:53;21.50;73.70
25640;DHT22;13497;48.322;16.204;2023-03-23T15:35:24;21.60;73.80
25640;DHT22;13497;48.322;16.204;2023-03-23T15:38:03;21.70;73.90
25640;DHT22;13497;48.322;16.204;2023-03-23T15:40:34;21.80;73.50
25640;DHT22;13497;48.322;16.204;2023-03-23T15:43:17;21.70;73.70
25640;DHT22;13497;48.322;16.204;2023-03-23T15:46:01;21.70;74.20
25640;DHT22;13497;48.322;16.204;2023-03-23T15:48:33;21.70;73.70
25640;DHT22;13497;48.322;16.204;2023-03-23T15:51:01;21.50;72.90
25640;DHT22;13497;48.322;16.204;2023-03-23T15:53:33;21.40;73.50
25640;DHT22;13497;48.322;16.204;2023-03-23T15:56:04;21.20;73.70
25640;DHT22;13497;48.322;16.204;2023-03-23T15:58:31;21.10;73.50
25640;DHT22;13497;48.322;16.204;2023-03-23T16:00:58;20.90;73.00
25640;DHT22;13497;48.322;16.204;2023-03-23T16:03:44;20.80;73.20
25640;DHT22;13497;48.322;16.204;2023-03-23T16:06:12;20.80;73.60
25640;DHT22;13497;48.322;16.204;2023-03-23T16:08:38;20.70;72.80
25640;DHT22;13497;48.322;16.204;2023-03-23T16:11:16;20.60;73.60
25640;DHT22;13497;48.322;16.204;2023-03-23T16:13:43;20.40;73.30
25640;DHT22;13497;48.322;16.204;2023-03-23T16:16:12;20.30;73.60
25640;DHT22;13497;48.322;16.204;2023-03-23T16:18:38;20.30;73.70
25640;DHT22;13497;48.322;16.204;2023-03-23T16:21:04;20.10;73.90
25640;DHT22;13497;48.322;16.204;2023-03-23T16:23:30;20.10;73.90
25640;DHT22;13497;48.322;16.204;2023-03-23T16:25:56;20.00;74.40
25640;DHT22;13497;48.322;16.204;2023-03-23T16:28:21;20.00;74.00
25640;DHT22;13497;48.322;16.204;2023-03-23T16:30:47;19.90;74.80
25640;DHT22;13497;48.322;16.204;2023-03-23T16:33:14;19.80;74.80
25640;DHT22;13497;48.322;16.204;2023-03-23T16:35:39;19.80;74.80
25640;DHT22;13497;48.322;16.204;2023-03-23T16:38:05;19.70;74.70
25640;DHT22;13497;48.322;16.204;2023-03-23T16:40:31;19.70;75.10
25640;DHT22;13497;48.322;16.204;2023-03-23T16:42:57;19.60;75.60
25640;DHT22;13497;48.322;16.204;2023-03-23T16:45:23;19.40;75.50
25640;DHT22;13497;48.322;16.204;2023-03-23T16:47:51;19.40;75.70
25640;DHT22;13497;48.322;16.204;2023-03-23T16:50:19;19.40;75.70
25640;DHT22;13497;48.322;16.204;2023-03-23T16:52:45;19.30;75.60
25640;DHT22;13497;48.322;16.204;2023-03-23T16:55:14;19.30;75.80
25640;DHT22;13497;48.322;16.204;2023-03-23T16:57:40;19.20;76.00
25640;DHT22;13497;48.322;16.204;2023-03-23T17:00:14;19.20;76.10